createdAt,value
2022-08-22T00:00:15.393Z,75.76
2022-08-22T00:02:41.797Z,67.90
2022-08-22T00:02:46.875Z,75.58
2022-08-22T00:03:08.059Z,75.72
2022-08-22T00:06:03.275Z,76.39
2022-08-22T00:08:42.758Z,76.12
2022-08-22T00:11:26.519Z,76.37
2022-08-22T00:14:02.255Z,76.61
2022-08-22T00:16:40.782Z,76.47
2022-08-22T00:19:20.989Z,76.68
2022-08-22T00:21:59.250Z,77.19
2022-08-22T00:24:34.184Z,77.18
2022-08-22T00:27:12.215Z,76.83
2022-08-22T00:29:47.045Z,76.99
2022-08-22T00:32:23.619Z,77.00
2022-08-22T00:35:00.623Z,77.38
2022-08-22T00:37:36.077Z,77.51
2022-08-22T00:40:19.010Z,77.50
2022-08-22T00:43:32.121Z,77.27
2022-08-22T00:46:18.553Z,76.91
2022-08-22T00:49:13.331Z,77.16
2022-08-22T00:52:10.481Z,77.40
2022-08-22T00:55:07.219Z,77.13
2022-08-22T00:57:54.638Z,77.25
2022-08-22T01:00:30.264Z,77.30
2022-08-22T01:03:29.666Z,77.09
2022-08-22T01:06:17.883Z,77.31
2022-08-22T01:09:06.290Z,76.95
2022-08-22T01:12:08.301Z,77.43
2022-08-22T01:14:47.270Z,77.52
2022-08-22T01:18:02.031Z,77.52
2022-08-22T01:21:02.342Z,77.06
2022-08-22T01:24:14.497Z,76.86
2022-08-22T01:27:26.283Z,77.36
2022-08-22T01:30:26.305Z,77.53
2022-08-22T01:33:44.881Z,77.40
2022-08-22T01:36:53.373Z,77.33
2022-08-22T01:39:49.238Z,77.54
2022-08-22T01:42:43.514Z,77.07
2022-08-22T01:45:28.149Z,77.29
2022-08-22T01:48:02.578Z,76.82
2022-08-22T01:50:36.792Z,77.11
2022-08-22T01:53:11.540Z,76.90
2022-08-22T01:55:54.929Z,77.07
2022-08-22T01:58:28.201Z,77.07
2022-08-22T02:01:09.418Z,77.00
2022-08-22T02:03:46.571Z,77.06
2022-08-22T02:06:21.462Z,77.23
2022-08-22T02:09:02.270Z,76.63
2022-08-22T02:11:47.381Z,76.66
2022-08-22T02:14:30.729Z,76.83
2022-08-22T02:17:13.522Z,76.71
2022-08-22T02:19:52.645Z,77.20
2022-08-22T02:22:36.504Z,77.07
2022-08-22T02:25:18.137Z,77.38
2022-08-22T02:27:59.604Z,77.12
2022-08-22T02:30:45.746Z,76.42
2022-08-22T02:33:24.854Z,76.92
2022-08-22T02:35:58.110Z,76.81
2022-08-22T02:38:34.917Z,76.77
2022-08-22T02:41:17.034Z,76.31
2022-08-22T02:43:55.249Z,76.14
2022-08-22T02:46:32.868Z,76.46
2022-08-22T02:49:11.893Z,76.12
2022-08-22T02:51:49.439Z,76.40
2022-08-22T02:54:26.537Z,76.55
2022-08-22T02:57:03.848Z,76.61
2022-08-22T02:59:40.217Z,76.81
2022-08-22T03:02:29.761Z,76.75
2022-08-22T03:05:03.692Z,76.98
2022-08-22T03:07:42.849Z,76.66
2022-08-22T03:10:21.440Z,76.94
2022-08-22T03:13:00.272Z,76.57
2022-08-22T03:15:39.579Z,76.75
2022-08-22T03:18:25.718Z,76.86
2022-08-22T03:21:02.703Z,77.10
2022-08-22T03:23:42.094Z,77.07
2022-08-22T03:26:17.854Z,76.70
2022-08-22T03:28:58.963Z,77.43
2022-08-22T03:31:34.391Z,77.23
2022-08-22T03:34:22.599Z,77.60
2022-08-22T03:37:05.545Z,77.67
2022-08-22T03:39:49.336Z,77.12
2022-08-22T03:42:37.352Z,77.25
2022-08-22T03:45:38.672Z,77.29
2022-08-22T03:48:38.881Z,77.79
2022-08-22T03:51:43.964Z,77.39
2022-08-22T03:54:51.800Z,77.32
2022-08-22T03:57:51.210Z,77.33
2022-08-22T04:00:43.549Z,77.03
2022-08-22T04:03:46.674Z,77.58
2022-08-22T04:06:48.308Z,77.53
2022-08-22T04:09:43.364Z,77.65
2022-08-22T04:12:42.412Z,77.49
2022-08-22T04:15:33.730Z,77.86
2022-08-22T04:18:46.065Z,77.22
2022-08-22T04:21:44.711Z,77.15
2022-08-22T04:24:36.816Z,77.46
2022-08-22T04:27:15.529Z,77.24
2022-08-22T04:29:51.813Z,76.84
2022-08-22T04:32:31.680Z,76.92
2022-08-22T04:35:07.012Z,76.46
2022-08-22T04:37:45.465Z,76.18
2022-08-22T04:40:24.802Z,75.94
2022-08-22T04:42:59.939Z,75.60
2022-08-22T04:45:37.575Z,75.24
2022-08-22T04:48:13.039Z,75.26
2022-08-22T04:50:48.730Z,74.88
2022-08-22T04:53:33.302Z,74.77
2022-08-22T04:56:13.736Z,73.82
2022-08-22T04:58:49.609Z,73.75
2022-08-22T05:01:30.898Z,74.00
2022-08-22T05:04:05.701Z,74.65
2022-08-22T05:06:41.048Z,74.46
2022-08-22T05:09:17.478Z,74.89
2022-08-22T05:11:52.014Z,74.81
2022-08-22T05:14:28.579Z,74.56
2022-08-22T05:17:00.626Z,74.53
2022-08-22T05:19:34.894Z,74.67
2022-08-22T05:22:06.446Z,73.87
2022-08-22T05:24:42.649Z,73.63
2022-08-22T05:27:15.431Z,73.81
2022-08-22T05:29:49.832Z,73.44
2022-08-22T05:32:24.327Z,73.22
2022-08-22T05:34:58.596Z,72.27
2022-08-22T05:37:37.061Z,71.16
2022-08-22T05:40:14.788Z,69.76
2022-08-22T05:42:46.830Z,69.79
2022-08-22T05:45:18.163Z,69.81
2022-08-22T05:47:53.558Z,69.27
2022-08-22T05:50:38.803Z,69.47
2022-08-22T05:53:15.177Z,69.36
2022-08-22T05:55:58.538Z,69.91
2022-08-22T05:58:47.730Z,69.77
2022-08-22T06:01:28.811Z,70.49
2022-08-22T06:04:08.662Z,70.33
2022-08-22T06:06:45.989Z,71.14
2022-08-22T06:09:22.515Z,70.02
2022-08-22T06:12:02.209Z,70.05
2022-08-22T06:14:41.548Z,69.87
2022-08-22T06:17:16.581Z,69.81
2022-08-22T06:19:50.015Z,69.75
2022-08-22T06:22:24.613Z,69.40
2022-08-22T06:24:57.684Z,68.66
2022-08-22T06:27:31.467Z,67.81
2022-08-22T06:30:04.688Z,66.45
2022-08-22T06:32:59.926Z,66.41
2022-08-22T06:38:23.081Z,65.72
2022-08-22T06:40:58.181Z,66.05
2022-08-22T06:43:35.836Z,66.04
2022-08-22T06:46:06.648Z,64.82
2022-08-22T06:48:39.120Z,65.41
2022-08-22T06:51:10.908Z,64.46
2022-08-22T06:53:48.162Z,64.46
2022-08-22T06:56:23.964Z,64.53
2022-08-22T06:59:00.267Z,63.58
2022-08-22T07:01:36.367Z,63.26
2022-08-22T07:04:10.517Z,62.77
2022-08-22T07:06:44.824Z,63.74
2022-08-22T07:09:25.777Z,64.38
2022-08-22T07:11:57.729Z,64.41
2022-08-22T07:14:34.070Z,64.09
2022-08-22T07:17:09.469Z,63.54
2022-08-22T07:19:42.387Z,63.46
2022-08-22T07:22:17.462Z,63.60
2022-08-22T07:24:51.092Z,62.89
2022-08-22T07:27:52.567Z,61.78
2022-08-22T07:30:29.421Z,60.32
2022-08-22T07:33:17.751Z,60.57
2022-08-22T07:36:01.947Z,60.40
2022-08-22T07:38:48.335Z,60.31
2022-08-22T07:41:23.803Z,60.46
2022-08-22T07:43:57.931Z,61.42
2022-08-22T07:46:36.813Z,61.87
2022-08-22T07:49:14.793Z,62.50
2022-08-22T07:51:48.045Z,62.47
2022-08-22T07:54:27.240Z,62.15
2022-08-22T07:57:03.721Z,61.09
2022-08-22T07:59:37.973Z,61.12
2022-08-22T08:02:15.502Z,61.06
2022-08-22T08:04:46.201Z,59.62
2022-08-22T08:07:19.205Z,58.61
2022-08-22T08:09:53.396Z,58.54
2022-08-22T08:12:32.211Z,58.66
2022-08-22T08:15:04.230Z,58.77
2022-08-22T08:17:39.061Z,59.35
2022-08-22T08:20:13.133Z,59.55
2022-08-22T08:22:47.916Z,58.46
2022-08-22T08:25:22.571Z,57.11
2022-08-22T08:28:06.258Z,57.27
2022-08-22T08:30:44.689Z,57.05
2022-08-22T08:33:25.501Z,57.65
2022-08-22T08:36:03.942Z,58.31
2022-08-22T08:38:39.047Z,58.08
2022-08-22T08:41:30.112Z,57.43
2022-08-22T08:44:12.961Z,57.59
2022-08-22T08:47:03.607Z,56.95
2022-08-22T08:49:46.350Z,56.77
2022-08-22T08:52:37.270Z,57.05
2022-08-22T08:55:22.555Z,57.51
2022-08-22T08:58:06.923Z,58.10
2022-08-22T09:00:57.988Z,58.69
2022-08-22T09:04:14.980Z,58.60
2022-08-22T09:07:03.110Z,60.28
2022-08-22T09:10:03.028Z,60.45
2022-08-22T09:16:06.038Z,61.19
2022-08-22T09:18:56.046Z,61.52
2022-08-22T09:21:50.929Z,60.79
2022-08-22T09:24:45.297Z,60.97
2022-08-22T09:27:21.689Z,62.65
2022-08-22T09:30:16.258Z,62.02
2022-08-22T09:32:55.698Z,61.38
2022-08-22T09:35:31.158Z,60.37
2022-08-22T09:38:25.097Z,59.56
2022-08-22T09:41:06.480Z,59.14
2022-08-22T09:43:48.463Z,59.39
2022-08-22T09:46:31.443Z,59.86
2022-08-22T09:49:07.493Z,58.47
2022-08-22T09:51:47.506Z,58.56
2022-08-22T09:54:31.199Z,57.65
2022-08-22T09:57:18.455Z,58.10
2022-08-22T10:00:16.058Z,57.47
2022-08-22T10:02:53.600Z,57.73
2022-08-22T10:05:40.513Z,57.69
2022-08-22T10:08:41.224Z,57.63
2022-08-22T10:11:26.944Z,58.11
2022-08-22T10:14:06.310Z,58.35
2022-08-22T10:16:58.836Z,58.51
2022-08-22T10:19:35.378Z,58.86
2022-08-22T10:22:29.817Z,58.29
2022-08-22T10:25:33.150Z,58.30
2022-08-22T10:28:17.913Z,57.21
2022-08-22T10:31:04.446Z,56.63
2022-08-22T10:33:44.354Z,55.31
2022-08-22T10:36:19.447Z,54.75
2022-08-22T10:38:54.767Z,54.67
2022-08-22T10:41:32.479Z,53.70
2022-08-22T10:44:08.050Z,53.90
2022-08-22T10:46:51.236Z,53.08
2022-08-22T10:49:28.942Z,52.97
2022-08-22T10:52:13.691Z,54.05
2022-08-22T10:54:51.449Z,53.82
2022-08-22T10:57:47.378Z,53.48
2022-08-22T11:00:49.818Z,53.55
2022-08-22T11:03:30.997Z,52.01
2022-08-22T11:06:04.293Z,51.41
2022-08-22T11:08:57.854Z,51.82
2022-08-22T11:11:48.576Z,52.04
2022-08-22T11:14:49.871Z,51.43
2022-08-22T11:17:41.730Z,51.97
2022-08-22T11:20:25.745Z,52.16
2022-08-22T11:23:21.826Z,51.83
2022-08-22T11:25:59.243Z,51.75
2022-08-22T11:29:13.784Z,51.53
2022-08-22T11:31:54.687Z,50.47
2022-08-22T11:34:44.937Z,49.22
2022-08-22T11:37:42.950Z,48.83
2022-08-22T11:40:35.662Z,47.52
2022-08-22T11:43:25.902Z,48.15
2022-08-22T11:46:00.872Z,47.58
2022-08-22T11:48:47.424Z,49.38
2022-08-22T11:51:34.229Z,48.66
2022-08-22T11:54:15.645Z,47.75
2022-08-22T11:56:55.895Z,46.34
2022-08-22T11:59:32.799Z,46.11
2022-08-22T12:02:21.726Z,45.83
2022-08-22T12:04:58.230Z,45.44
2022-08-22T12:07:32.760Z,44.49
2022-08-22T12:10:13.712Z,44.98
2022-08-22T12:13:01.368Z,45.28
2022-08-22T12:15:43.856Z,43.76
2022-08-22T12:18:41.388Z,44.17
2022-08-22T12:21:40.197Z,43.59
2022-08-22T12:24:35.770Z,43.25
2022-08-22T12:27:34.791Z,41.89
2022-08-22T12:30:16.250Z,41.28
2022-08-22T12:33:09.762Z,43.25
2022-08-22T12:35:55.574Z,42.59
2022-08-22T12:38:42.801Z,41.83
2022-08-22T12:41:40.950Z,40.25
2022-08-22T12:44:32.166Z,40.76
2022-08-22T12:47:26.174Z,40.46
2022-08-22T12:50:14.324Z,40.36
2022-08-22T12:53:00.610Z,41.18
2022-08-22T12:55:43.726Z,41.39
2022-08-22T12:58:28.557Z,40.77
2022-08-22T13:01:09.052Z,43.23
2022-08-22T13:03:46.393Z,43.23
2022-08-22T13:06:50.299Z,42.93
2022-08-22T13:09:22.779Z,45.62
2022-08-22T13:12:05.283Z,53.72
2022-08-22T13:14:37.030Z,56.03
2022-08-22T13:17:24.110Z,57.80
2022-08-22T13:20:02.090Z,60.40
2022-08-22T13:22:36.853Z,63.61
2022-08-22T13:25:22.387Z,65.65
2022-08-22T13:28:01.762Z,69.61
2022-08-22T13:30:37.813Z,69.55
2022-08-22T13:33:15.471Z,71.00
2022-08-22T13:35:52.161Z,72.03
2022-08-22T13:38:28.535Z,72.71
2022-08-22T13:41:01.208Z,72.42
2022-08-22T13:43:35.539Z,72.09
2022-08-22T13:46:10.953Z,72.64
2022-08-22T13:49:00.824Z,72.76
2022-08-22T13:51:40.221Z,73.44
2022-08-22T13:54:40.232Z,73.39
2022-08-22T13:57:19.940Z,74.08
2022-08-22T14:00:06.211Z,73.73
2022-08-22T14:02:47.816Z,74.00
2022-08-22T14:05:28.237Z,74.05
2022-08-22T14:08:13.339Z,70.09
2022-08-22T14:10:55.182Z,67.60
2022-08-22T14:13:41.317Z,68.04
2022-08-22T14:16:16.674Z,69.23
2022-08-22T14:18:53.885Z,69.21
2022-08-22T14:21:43.877Z,67.80
2022-08-22T14:24:25.463Z,68.69
2022-08-22T14:27:05.316Z,68.61
2022-08-22T14:29:44.884Z,68.12
2022-08-22T14:32:35.426Z,68.66
2022-08-22T14:35:23.606Z,70.68
2022-08-22T14:38:19.894Z,72.95
2022-08-22T14:40:56.863Z,73.55
2022-08-22T14:43:52.733Z,74.13
2022-08-22T14:46:27.881Z,74.84
2022-08-22T14:49:28.823Z,74.05
2022-08-22T14:52:19.325Z,75.22
2022-08-22T14:55:08.151Z,76.18
2022-08-22T14:57:40.622Z,76.81
2022-08-22T15:00:14.064Z,77.31
2022-08-22T15:02:47.365Z,78.29
2022-08-22T15:05:21.235Z,78.45
2022-08-22T15:07:59.473Z,80.63
2022-08-22T15:10:37.354Z,80.73
2022-08-22T15:13:13.713Z,81.75
2022-08-22T15:15:54.191Z,83.85
2022-08-22T15:18:39.039Z,80.62
2022-08-22T15:21:13.879Z,80.19
2022-08-22T15:23:49.451Z,80.18
2022-08-22T15:26:28.728Z,80.54
2022-08-22T15:29:07.074Z,80.41
2022-08-22T15:31:39.762Z,80.40
2022-08-22T15:34:18.026Z,80.30
2022-08-22T15:37:07.911Z,80.17
2022-08-22T15:40:03.055Z,79.86
2022-08-22T15:42:47.117Z,80.18
2022-08-22T15:45:34.062Z,81.10
2022-08-22T15:48:09.394Z,81.31
2022-08-22T15:50:44.286Z,82.69
2022-08-22T15:53:25.573Z,83.66
2022-08-22T15:56:25.340Z,82.60
2022-08-22T15:59:47.747Z,81.98
2022-08-22T16:02:36.550Z,81.84
2022-08-22T16:05:24.542Z,81.52
2022-08-22T16:08:05.668Z,80.97
2022-08-22T16:10:40.354Z,79.52
2022-08-22T16:13:39.415Z,78.54
2022-08-22T16:16:16.121Z,78.16
2022-08-22T16:19:24.650Z,78.73
2022-08-22T16:22:12.096Z,78.23
2022-08-22T16:25:10.394Z,78.57
2022-08-22T16:27:55.719Z,78.57
2022-08-22T16:30:41.437Z,78.04
2022-08-22T16:33:31.228Z,78.32
2022-08-22T16:36:49.056Z,78.16
2022-08-22T16:39:38.672Z,77.29
2022-08-22T16:42:31.185Z,78.11
2022-08-22T16:45:14.879Z,77.83
2022-08-22T16:47:52.694Z,77.72
2022-08-22T16:50:36.294Z,78.43
2022-08-22T16:53:13.915Z,78.31
2022-08-22T16:56:13.767Z,78.49
2022-08-22T16:59:19.725Z,77.47
2022-08-22T17:02:13.937Z,77.44
2022-08-22T17:04:56.619Z,77.77
2022-08-22T17:07:45.951Z,77.67
2022-08-22T17:10:33.919Z,78.86
2022-08-22T17:13:17.585Z,78.75
2022-08-22T17:16:00.728Z,79.49
2022-08-22T17:18:48.961Z,79.23
2022-08-22T17:21:26.351Z,78.80
2022-08-22T17:24:07.216Z,78.88
2022-08-22T17:26:55.225Z,78.65
2022-08-22T17:29:34.565Z,78.61
2022-08-22T17:32:18.008Z,78.61
2022-08-22T17:34:59.557Z,79.05
2022-08-22T17:37:44.584Z,78.98
2022-08-22T17:40:34.760Z,79.05
2022-08-22T17:43:48.959Z,79.88
2022-08-22T17:46:44.734Z,80.32
2022-08-22T17:49:25.984Z,80.93
2022-08-22T17:52:01.472Z,80.82
2022-08-22T17:54:42.962Z,80.66
2022-08-22T17:57:29.885Z,81.07
2022-08-22T18:00:06.522Z,81.46
2022-08-22T18:02:43.760Z,81.20
2022-08-22T18:05:19.509Z,81.43
2022-08-22T18:07:58.092Z,81.42
2022-08-22T18:10:40.750Z,81.49
2022-08-22T18:13:16.047Z,82.09
2022-08-22T18:15:53.426Z,81.80
2022-08-22T18:18:32.306Z,81.81
2022-08-22T18:21:11.624Z,81.81
2022-08-22T18:23:47.421Z,81.73
2022-08-22T18:26:27.061Z,81.97
2022-08-22T18:29:07.015Z,81.86
2022-08-22T18:31:51.922Z,81.92
2022-08-22T18:34:32.203Z,82.40
2022-08-22T18:37:08.702Z,82.32
2022-08-22T18:39:49.043Z,82.60
2022-08-22T18:42:27.040Z,82.22
2022-08-22T18:45:00.005Z,81.10
2022-08-22T18:47:34.556Z,80.54
2022-08-22T18:50:32.428Z,80.43
2022-08-22T18:53:03.575Z,80.10
2022-08-22T18:55:57.281Z,80.49
2022-08-22T18:58:45.857Z,81.21
2022-08-22T19:01:43.988Z,81.34
2022-08-22T19:04:43.138Z,81.63
2022-08-22T19:07:51.146Z,80.70
2022-08-22T19:10:41.411Z,80.69
2022-08-22T19:13:34.497Z,80.67
2022-08-22T19:16:20.100Z,79.87
2022-08-22T19:19:00.100Z,79.14
2022-08-22T19:21:45.563Z,79.77
2022-08-22T19:24:59.135Z,79.79
2022-08-22T19:27:31.902Z,79.66
2022-08-22T19:30:05.488Z,80.48
2022-08-22T19:33:07.655Z,80.94
2022-08-22T19:36:12.467Z,81.11
2022-08-22T19:39:04.465Z,81.40
2022-08-22T19:41:58.301Z,81.11
2022-08-22T19:44:44.957Z,81.02
2022-08-22T19:47:30.207Z,81.42
2022-08-22T19:50:05.911Z,81.98
2022-08-22T19:52:51.210Z,82.49
2022-08-22T19:55:28.811Z,82.46
2022-08-22T19:58:09.326Z,82.61
2022-08-22T20:00:53.505Z,82.58
2022-08-22T20:03:37.656Z,82.57
2022-08-22T20:06:40.762Z,82.11
2022-08-22T20:09:22.028Z,82.14
2022-08-22T20:12:05.273Z,82.32
2022-08-22T20:14:37.551Z,82.49
2022-08-22T20:17:12.804Z,82.85
2022-08-22T20:22:43.760Z,83.36
2022-08-22T20:25:42.916Z,83.69
2022-08-22T20:28:29.594Z,83.98
2022-08-22T20:31:02.495Z,84.20
2022-08-22T20:33:36.322Z,84.19
2022-08-22T20:36:18.491Z,84.24
2022-08-22T20:39:01.735Z,85.00
2022-08-22T20:41:38.751Z,85.26
2022-08-22T20:44:16.098Z,85.46
2022-08-22T20:46:55.263Z,85.23
2022-08-22T20:49:30.017Z,85.19
2022-08-22T20:52:02.217Z,85.06
2022-08-22T20:54:35.271Z,84.38
2022-08-22T20:57:17.668Z,83.99
2022-08-22T20:59:55.501Z,83.78
2022-08-22T21:02:30.477Z,83.23
2022-08-22T21:05:04.792Z,83.46
2022-08-22T21:07:37.536Z,83.19
2022-08-22T21:10:23.079Z,81.41
2022-08-22T21:13:12.487Z,80.00
2022-08-22T21:15:45.338Z,80.34
2022-08-22T21:18:17.901Z,80.21
2022-08-22T21:20:48.033Z,80.53
2022-08-22T21:23:19.898Z,81.10
2022-08-22T21:25:57.429Z,81.34
2022-08-22T21:28:36.867Z,81.75
2022-08-22T21:31:15.346Z,81.36
2022-08-22T21:33:48.170Z,81.75
2022-08-22T21:36:22.312Z,81.46
2022-08-22T21:38:57.885Z,82.49
2022-08-22T21:41:31.061Z,82.64
2022-08-22T21:44:28.184Z,82.86
2022-08-22T21:46:58.975Z,83.03
2022-08-22T21:49:32.505Z,83.07
2022-08-22T21:52:02.613Z,83.14
2022-08-22T21:54:45.305Z,83.15
2022-08-22T21:57:24.495Z,82.90
2022-08-22T21:59:59.419Z,83.20
2022-08-22T22:02:38.270Z,83.00
2022-08-22T22:05:13.675Z,82.05
2022-08-22T22:07:46.471Z,81.46
2022-08-22T22:10:18.763Z,81.79
2022-08-22T22:12:51.963Z,81.48
2022-08-22T22:15:27.541Z,81.62
2022-08-22T22:17:58.452Z,81.87
2022-08-22T22:20:30.762Z,81.75
2022-08-22T22:23:01.055Z,81.86
2022-08-22T22:25:40.853Z,81.95
2022-08-22T22:28:14.557Z,82.25
2022-08-22T22:30:50.623Z,82.10
2022-08-22T22:33:21.521Z,82.70
2022-08-22T22:35:52.396Z,82.43
2022-08-22T22:38:24.272Z,82.27
2022-08-22T22:40:54.772Z,82.49
2022-08-22T22:43:24.910Z,83.00
2022-08-22T22:45:57.842Z,82.84
2022-08-22T22:48:28.286Z,82.91
2022-08-22T22:50:58.969Z,82.69
2022-08-22T22:53:38.621Z,82.89
2022-08-22T22:56:13.035Z,82.79
2022-08-22T22:58:43.927Z,82.09
2022-08-22T23:01:19.390Z,82.29
2022-08-22T23:03:51.114Z,82.13
2022-08-22T23:06:24.230Z,82.60
2022-08-22T23:08:54.911Z,82.12
2022-08-22T23:11:27.604Z,81.72
2022-08-22T23:13:57.996Z,82.22
2022-08-22T23:16:36.609Z,82.37
2022-08-22T23:19:11.106Z,81.53
2022-08-22T23:21:41.712Z,80.97
2022-08-22T23:24:12.452Z,81.85
2022-08-22T23:26:43.086Z,80.97
2022-08-22T23:29:14.231Z,80.72
2022-08-22T23:31:53.009Z,80.35
2022-08-22T23:34:25.528Z,80.80
2022-08-22T23:36:58.268Z,80.29
2022-08-22T23:39:30.115Z,80.32
2022-08-22T23:42:01.664Z,80.38
2022-08-22T23:44:34.219Z,80.67
2022-08-22T23:47:08.276Z,80.18
2022-08-22T23:49:40.118Z,80.22
2022-08-22T23:52:12.548Z,80.87
2022-08-22T23:54:42.763Z,81.48
2022-08-22T23:57:13.502Z,80.56
2022-08-22T23:59:46.486Z,80.17
